sensor_id;sensor_type;location;lat;lon;timestamp;temperature;humidity
4556;DHT22;2290;48.674;9.018;2022-10-16T00:01:30;16.00;99.90
4556;DHT22;2290;48.674;9.018;2022-10-16T00:03:57;15.90;99.90
4556;DHT22;2290;48.674;9.018;2022-10-16T00:06:25;15.90;99.90
4556;DHT22;2290;48.674;9.018;2022-10-16T00:08:51;16.00;99.90
4556;DHT22;2290;48.674;9.018;2022-10-16T00:11:20;15.90;99.90
4556;DHT22;2290;48.674;9.018;2022-10-16T00:13:48;15.90;99.90
4556;DHT22;2290;48.674;9.018;2022-10-16T00:16:19;15.90;99.90
4556;DHT22;2290;48.674;9.018;2022-10-16T00:18:46;15.80;99.90
4556;DHT22;2290;48.674;9.018;2022-10-16T00:21:18;15.90;99.90
4556;DHT22;2290;48.674;9.018;2022-10-16T00:23:44;15.80;99.90
4556;DHT22;2290;48.674;9.018;2022-10-16T00:26:13;15.90;99.90
4556;DHT22;2290;48.674;9.018;2022-10-16T00:28:40;15.80;99.90
4556;DHT22;2290;48.674;9.018;2022-10-16T00:31:08;15.80;99.90
4556;DHT22;2290;48.674;9.018;2022-10-16T00:33:35;16.20;99.90
4556;DHT22;2290;48.674;9.018;2022-10-16T00:36:03;15.80;99.90
4556;DHT22;2290;48.674;9.018;2022-10-16T00:38:29;15.70;99.90
4556;DHT22;2290;48.674;9.018;2022-10-16T00:40:55;15.70;99.90
4556;DHT22;2290;48.674;9.018;2022-10-16T00:43:50;15.70;99.90
4556;DHT22;2290;48.674;9.018;2022-10-16T00:46:23;15.80;99.90
4556;DHT22;2290;48.674;9.018;2022-10-16T00:51:40;15.80;99.90
4556;DHT22;2290;48.674;9.018;2022-10-16T00:54:13;15.80;99.90
4556;DHT22;2290;48.674;9.018;2022-10-16T00:56:39;15.70;99.90
4556;DHT22;2290;48.674;9.018;2022-10-16T00:59:25;15.80;99.90
4556;DHT22;2290;48.674;9.018;2022-10-16T01:01:52;15.80;99.90
4556;DHT22;2290;48.674;9.018;2022-10-16T01:04:18;16.10;99.90
4556;DHT22;2290;48.674;9.018;2022-10-16T01:07:08;15.80;99.90
4556;DHT22;2290;48.674;9.018;2022-10-16T01:12:45;15.70;99.90
4556;DHT22;2290;48.674;9.018;2022-10-16T01:21:28;15.70;99.90
4556;DHT22;2290;48.674;9.018;2022-10-16T01:24:33;15.70;99.90
4556;DHT22;2290;48.674;9.018;2022-10-16T01:27:15;15.70;99.90
4556;DHT22;2290;48.674;9.018;2022-10-16T01:30:02;15.60;99.90
4556;DHT22;2290;48.674;9.018;2022-10-16T01:32:52;15.70;99.90
4556;DHT22;2290;48.674;9.018;2022-10-16T01:38:05;15.60;99.90
4556;DHT22;2290;48.674;9.018;2022-10-16T01:40:34;15.60;99.90
4556;DHT22;2290;48.674;9.018;2022-10-16T01:43:28;15.60;99.90
4556;DHT22;2290;48.674;9.018;2022-10-16T01:45:57;15.70;99.90
4556;DHT22;2290;48.674;9.018;2022-10-16T01:48:25;15.70;99.90
4556;DHT22;2290;48.674;9.018;2022-10-16T01:51:15;15.70;99.90
4556;DHT22;2290;48.674;9.018;2022-10-16T01:53:46;15.60;99.90
4556;DHT22;2290;48.674;9.018;2022-10-16T01:56:14;15.70;99.90
4556;DHT22;2290;48.674;9.018;2022-10-16T01:58:46;15.70;99.90
4556;DHT22;2290;48.674;9.018;2022-10-16T02:01:17;15.60;99.90
4556;DHT22;2290;48.674;9.018;2022-10-16T02:03:45;15.70;99.90
4556;DHT22;2290;48.674;9.018;2022-10-16T02:06:12;15.70;99.90
4556;DHT22;2290;48.674;9.018;2022-10-16T02:08:38;15.80;99.90
4556;DHT22;2290;48.674;9.018;2022-10-16T02:11:10;15.70;99.90
4556;DHT22;2290;48.674;9.018;2022-10-16T02:13:48;15.80;99.90
4556;DHT22;2290;48.674;9.018;2022-10-16T02:16:16;15.90;99.90
4556;DHT22;2290;48.674;9.018;2022-10-16T02:18:44;15.90;99.90
4556;DHT22;2290;48.674;9.018;2022-10-16T02:24:12;15.90;99.90
4556;DHT22;2290;48.674;9.018;2022-10-16T02:27:05;15.90;99.90
4556;DHT22;2290;48.674;9.018;2022-10-16T02:29:42;15.90;99.90
4556;DHT22;2290;48.674;9.018;2022-10-16T02:32:19;16.00;99.90
4556;DHT22;2290;48.674;9.018;2022-10-16T02:34:49;16.10;99.90
4556;DHT22;2290;48.674;9.018;2022-10-16T02:37:16;15.90;99.90
4556;DHT22;2290;48.674;9.018;2022-10-16T02:39:43;15.90;99.90
4556;DHT22;2290;48.674;9.018;2022-10-16T02:42:13;16.00;99.90
4556;DHT22;2290;48.674;9.018;2022-10-16T02:44:40;16.00;99.90
4556;DHT22;2290;48.674;9.018;2022-10-16T02:47:06;15.90;99.90
4556;DHT22;2290;48.674;9.018;2022-10-16T02:49:32;16.00;99.90
4556;DHT22;2290;48.674;9.018;2022-10-16T02:51:57;15.90;99.90
4556;DHT22;2290;48.674;9.018;2022-10-16T02:54:24;15.90;99.90
4556;DHT22;2290;48.674;9.018;2022-10-16T02:56:50;15.90;99.90
4556;DHT22;2290;48.674;9.018;2022-10-16T02:59:17;15.90;99.90
4556;DHT22;2290;48.674;9.018;2022-10-16T03:01:42;15.80;99.90
4556;DHT22;2290;48.674;9.018;2022-10-16T03:04:08;15.80;99.90
4556;DHT22;2290;48.674;9.018;2022-10-16T03:06:34;15.80;99.90
4556;DHT22;2290;48.674;9.018;2022-10-16T03:08:59;15.90;99.90
4556;DHT22;2290;48.674;9.018;2022-10-16T03:11:26;15.90;99.90
4556;DHT22;2290;48.674;9.018;2022-10-16T03:13:52;15.90;99.90
4556;DHT22;2290;48.674;9.018;2022-10-16T03:16:17;15.90;99.90
4556;DHT22;2290;48.674;9.018;2022-10-16T03:18:43;15.90;99.90
4556;DHT22;2290;48.674;9.018;2022-10-16T03:21:09;15.80;99.90
4556;DHT22;2290;48.674;9.018;2022-10-16T03:23:34;15.90;99.90
4556;DHT22;2290;48.674;9.018;2022-10-16T03:26:00;15.90;99.90
4556;DHT22;2290;48.674;9.018;2022-10-16T03:28:25;15.90;99.90
4556;DHT22;2290;48.674;9.018;2022-10-16T03:30:51;15.80;99.90
4556;DHT22;2290;48.674;9.018;2022-10-16T03:33:17;15.90;99.90
4556;DHT22;2290;48.674;9.018;2022-10-16T03:35:52;15.90;99.90
4556;DHT22;2290;48.674;9.018;2022-10-16T03:38:22;15.90;99.90
4556;DHT22;2290;48.674;9.018;2022-10-16T03:40:50;15.90;99.90
4556;DHT22;2290;48.674;9.018;2022-10-16T03:43:17;15.90;99.90
4556;DHT22;2290;48.674;9.018;2022-10-16T03:45:42;15.80;99.90
4556;DHT22;2290;48.674;9.018;2022-10-16T03:48:10;15.90;99.90
4556;DHT22;2290;48.674;9.018;2022-10-16T03:50:37;15.90;99.90
4556;DHT22;2290;48.674;9.018;2022-10-16T03:53:03;15.90;99.90
4556;DHT22;2290;48.674;9.018;2022-10-16T03:55:29;15.80;99.90
4556;DHT22;2290;48.674;9.018;2022-10-16T03:57:56;15.80;99.90
4556;DHT22;2290;48.674;9.018;2022-10-16T04:00:21;15.80;99.90
4556;DHT22;2290;48.674;9.018;2022-10-16T04:02:47;15.90;99.90
4556;DHT22;2290;48.674;9.018;2022-10-16T04:05:13;15.90;99.90
4556;DHT22;2290;48.674;9.018;2022-10-16T04:07:38;15.80;99.90
4556;DHT22;2290;48.674;9.018;2022-10-16T04:10:04;15.90;99.90
4556;DHT22;2290;48.674;9.018;2022-10-16T04:12:30;15.80;99.90
4556;DHT22;2290;48.674;9.018;2022-10-16T04:14:56;15.80;99.90
4556;DHT22;2290;48.674;9.018;2022-10-16T04:17:22;15.80;99.90
4556;DHT22;2290;48.674;9.018;2022-10-16T04:19:48;15.90;99.90
4556;DHT22;2290;48.674;9.018;2022-10-16T04:22:13;15.90;99.90
4556;DHT22;2290;48.674;9.018;2022-10-16T04:24:39;16.00;99.90
4556;DHT22;2290;48.674;9.018;2022-10-16T04:27:05;15.90;99.90
4556;DHT22;2290;48.674;9.018;2022-10-16T04:29:31;15.90;99.90
4556;DHT22;2290;48.674;9.018;2022-10-16T04:31:58;15.90;99.90
4556;DHT22;2290;48.674;9.018;2022-10-16T04:34:24;15.80;99.90
4556;DHT22;2290;48.674;9.018;2022-10-16T04:36:49;15.80;99.90
4556;DHT22;2290;48.674;9.018;2022-10-16T04:39:15;15.80;99.90
4556;DHT22;2290;48.674;9.018;2022-10-16T04:41:41;15.80;99.90
4556;DHT22;2290;48.674;9.018;2022-10-16T04:44:07;16.00;99.90
4556;DHT22;2290;48.674;9.018;2022-10-16T04:46:32;15.90;99.90
4556;DHT22;2290;48.674;9.018;2022-10-16T04:48:58;15.90;99.90
4556;DHT22;2290;48.674;9.018;2022-10-16T04:51:24;15.90;99.90
4556;DHT22;2290;48.674;9.018;2022-10-16T04:53:50;15.80;99.90
4556;DHT22;2290;48.674;9.018;2022-10-16T04:56:17;15.90;99.90
4556;DHT22;2290;48.674;9.018;2022-10-16T04:58:44;15.90;99.90
4556;DHT22;2290;48.674;9.018;2022-10-16T05:01:11;15.80;99.90
4556;DHT22;2290;48.674;9.018;2022-10-16T05:03:37;15.80;99.90
4556;DHT22;2290;48.674;9.018;2022-10-16T05:06:05;15.80;99.90
4556;DHT22;2290;48.674;9.018;2022-10-16T05:08:31;15.80;99.90
4556;DHT22;2290;48.674;9.018;2022-10-16T05:10:58;15.80;99.90
4556;DHT22;2290;48.674;9.018;2022-10-16T05:13:24;15.80;99.90
4556;DHT22;2290;48.674;9.018;2022-10-16T05:15:50;15.80;99.90
4556;DHT22;2290;48.674;9.018;2022-10-16T05:18:16;15.70;99.90
4556;DHT22;2290;48.674;9.018;2022-10-16T05:20:42;15.70;99.90
4556;DHT22;2290;48.674;9.018;2022-10-16T05:23:09;15.80;99.90
4556;DHT22;2290;48.674;9.018;2022-10-16T05:25:38;15.70;99.90
4556;DHT22;2290;48.674;9.018;2022-10-16T05:28:04;15.60;99.90
4556;DHT22;2290;48.674;9.018;2022-10-16T05:30:29;15.70;99.90
4556;DHT22;2290;48.674;9.018;2022-10-16T05:32:55;16.30;99.90
4556;DHT22;2290;48.674;9.018;2022-10-16T05:35:21;15.60;99.90
4556;DHT22;2290;48.674;9.018;2022-10-16T05:37:47;15.70;99.90
4556;DHT22;2290;48.674;9.018;2022-10-16T05:40:13;15.70;99.90
4556;DHT22;2290;48.674;9.018;2022-10-16T05:42:40;15.60;99.90
4556;DHT22;2290;48.674;9.018;2022-10-16T05:45:09;16.30;99.90
4556;DHT22;2290;48.674;9.018;2022-10-16T05:47:35;15.60;99.90
4556;DHT22;2290;48.674;9.018;2022-10-16T05:50:01;15.90;99.90
4556;DHT22;2290;48.674;9.018;2022-10-16T05:52:27;15.60;99.90
4556;DHT22;2290;48.674;9.018;2022-10-16T05:54:52;15.60;99.90
4556;DHT22;2290;48.674;9.018;2022-10-16T05:57:18;15.70;99.90
4556;DHT22;2290;48.674;9.018;2022-10-16T05:59:43;15.60;99.90
4556;DHT22;2290;48.674;9.018;2022-10-16T06:02:14;15.60;99.90
4556;DHT22;2290;48.674;9.018;2022-10-16T06:04:40;15.70;99.90
4556;DHT22;2290;48.674;9.018;2022-10-16T06:07:06;15.80;99.90
4556;DHT22;2290;48.674;9.018;2022-10-16T06:09:32;15.70;99.90
4556;DHT22;2290;48.674;9.018;2022-10-16T06:11:57;15.80;99.90
4556;DHT22;2290;48.674;9.018;2022-10-16T06:14:23;15.80;99.90
4556;DHT22;2290;48.674;9.018;2022-10-16T06:16:49;15.70;99.90
4556;DHT22;2290;48.674;9.018;2022-10-16T06:19:14;15.80;99.90
4556;DHT22;2290;48.674;9.018;2022-10-16T06:21:41;15.70;99.90
4556;DHT22;2290;48.674;9.018;2022-10-16T06:24:09;15.70;99.90
4556;DHT22;2290;48.674;9.018;2022-10-16T06:26:35;15.90;99.90
4556;DHT22;2290;48.674;9.018;2022-10-16T06:29:01;15.80;99.90
4556;DHT22;2290;48.674;9.018;2022-10-16T06:31:29;15.80;99.90
4556;DHT22;2290;48.674;9.018;2022-10-16T06:33:58;15.90;99.90
4556;DHT22;2290;48.674;9.018;2022-10-16T06:36:24;15.90;99.90
4556;DHT22;2290;48.674;9.018;2022-10-16T06:38:50;15.90;99.90
4556;DHT22;2290;48.674;9.018;2022-10-16T06:41:18;15.80;99.90
4556;DHT22;2290;48.674;9.018;2022-10-16T06:43:44;15.80;99.90
4556;DHT22;2290;48.674;9.018;2022-10-16T06:46:14;15.90;99.90
4556;DHT22;2290;48.674;9.018;2022-10-16T06:48:41;16.00;99.90
4556;DHT22;2290;48.674;9.018;2022-10-16T06:53:38;16.10;99.90
4556;DHT22;2290;48.674;9.018;2022-10-16T06:56:15;16.00;99.90
4556;DHT22;2290;48.674;9.018;2022-10-16T06:58:43;16.10;99.90
4556;DHT22;2290;48.674;9.018;2022-10-16T07:01:09;16.10;99.90
4556;DHT22;2290;48.674;9.018;2022-10-16T07:03:42;16.20;99.90
4556;DHT22;2290;48.674;9.018;2022-10-16T07:06:10;16.10;99.90
4556;DHT22;2290;48.674;9.018;2022-10-16T07:08:38;16.10;99.90
4556;DHT22;2290;48.674;9.018;2022-10-16T07:11:10;16.30;99.90
4556;DHT22;2290;48.674;9.018;2022-10-16T07:13:39;16.30;99.90
4556;DHT22;2290;48.674;9.018;2022-10-16T07:16:11;16.20;99.90
4556;DHT22;2290;48.674;9.018;2022-10-16T07:18:37;16.10;99.90
4556;DHT22;2290;48.674;9.018;2022-10-16T07:21:23;16.90;99.90
4556;DHT22;2290;48.674;9.018;2022-10-16T07:23:51;16.20;99.90
4556;DHT22;2290;48.674;9.018;2022-10-16T07:26:17;16.20;99.90
4556;DHT22;2290;48.674;9.018;2022-10-16T07:28:43;16.20;99.90
4556;DHT22;2290;48.674;9.018;2022-10-16T07:31:13;16.20;99.90
4556;DHT22;2290;48.674;9.018;2022-10-16T07:33:42;16.20;99.90
4556;DHT22;2290;48.674;9.018;2022-10-16T07:36:15;16.30;99.90
4556;DHT22;2290;48.674;9.018;2022-10-16T07:38:42;16.30;99.90
4556;DHT22;2290;48.674;9.018;2022-10-16T07:41:11;16.30;99.90
4556;DHT22;2290;48.674;9.018;2022-10-16T07:43:37;16.30;99.90
4556;DHT22;2290;48.674;9.018;2022-10-16T07:46:03;16.30;99.90
4556;DHT22;2290;48.674;9.018;2022-10-16T07:48:31;16.40;99.90
4556;DHT22;2290;48.674;9.018;2022-10-16T07:50:59;16.40;99.90
4556;DHT22;2290;48.674;9.018;2022-10-16T07:53:25;16.50;99.90
4556;DHT22;2290;48.674;9.018;2022-10-16T07:55:52;16.50;99.90
4556;DHT22;2290;48.674;9.018;2022-10-16T07:58:18;16.50;99.90
4556;DHT22;2290;48.674;9.018;2022-10-16T08:00:43;16.50;99.90
4556;DHT22;2290;48.674;9.018;2022-10-16T08:03:09;16.50;99.90
4556;DHT22;2290;48.674;9.018;2022-10-16T08:05:35;16.50;99.90
4556;DHT22;2290;48.674;9.018;2022-10-16T08:08:01;16.50;99.90
4556;DHT22;2290;48.674;9.018;2022-10-16T08:10:28;16.50;99.90
4556;DHT22;2290;48.674;9.018;2022-10-16T08:12:54;16.60;99.90
4556;DHT22;2290;48.674;9.018;2022-10-16T08:15:20;16.80;99.90
4556;DHT22;2290;48.674;9.018;2022-10-16T08:18:00;16.70;99.90
4556;DHT22;2290;48.674;9.018;2022-10-16T08:20:27;16.70;99.90
4556;DHT22;2290;48.674;9.018;2022-10-16T08:22:55;16.80;99.90
4556;DHT22;2290;48.674;9.018;2022-10-16T08:25:24;16.80;99.90
4556;DHT22;2290;48.674;9.018;2022-10-16T08:27:50;16.90;99.90
4556;DHT22;2290;48.674;9.018;2022-10-16T08:30:17;17.00;99.90
4556;DHT22;2290;48.674;9.018;2022-10-16T08:32:43;16.90;99.90
4556;DHT22;2290;48.674;9.018;2022-10-16T08:35:10;16.90;99.90
4556;DHT22;2290;48.674;9.018;2022-10-16T08:37:36;17.00;99.90
4556;DHT22;2290;48.674;9.018;2022-10-16T08:40:03;17.10;99.90
4556;DHT22;2290;48.674;9.018;2022-10-16T08:45:40;17.10;99.90
4556;DHT22;2290;48.674;9.018;2022-10-16T08:48:20;17.10;99.90
4556;DHT22;2290;48.674;9.018;2022-10-16T08:50:50;17.10;99.90
4556;DHT22;2290;48.674;9.018;2022-10-16T08:53:22;17.10;99.90
4556;DHT22;2290;48.674;9.018;2022-10-16T08:55:51;17.20;99.90
4556;DHT22;2290;48.674;9.018;2022-10-16T08:58:23;17.20;99.90
4556;DHT22;2290;48.674;9.018;2022-10-16T09:09:03;17.50;99.90
4556;DHT22;2290;48.674;9.018;2022-10-16T09:20:19;17.80;99.90
4556;DHT22;2290;48.674;9.018;2022-10-16T09:22:48;18.00;99.90
4556;DHT22;2290;48.674;9.018;2022-10-16T09:25:17;18.20;99.90
4556;DHT22;2290;48.674;9.018;2022-10-16T09:27:46;18.50;99.90
4556;DHT22;2290;48.674;9.018;2022-10-16T09:30:18;18.60;99.90
4556;DHT22;2290;48.674;9.018;2022-10-16T09:32:45;18.60;99.90
4556;DHT22;2290;48.674;9.018;2022-10-16T09:35:19;18.60;99.90
4556;DHT22;2290;48.674;9.018;2022-10-16T09:37:48;18.60;99.90
4556;DHT22;2290;48.674;9.018;2022-10-16T09:40:26;18.60;99.90
4556;DHT22;2290;48.674;9.018;2022-10-16T09:45:53;18.80;99.90
4556;DHT22;2290;48.674;9.018;2022-10-16T09:48:19;18.90;99.90
4556;DHT22;2290;48.674;9.018;2022-10-16T09:51:16;19.00;99.90
4556;DHT22;2290;48.674;9.018;2022-10-16T09:53:46;19.10;99.90
4556;DHT22;2290;48.674;9.018;2022-10-16T09:56:24;19.20;99.90
4556;DHT22;2290;48.674;9.018;2022-10-16T09:59:15;19.50;99.90
4556;DHT22;2290;48.674;9.018;2022-10-16T10:01:49;19.70;99.90
4556;DHT22;2290;48.674;9.018;2022-10-16T10:04:17;19.70;99.90
4556;DHT22;2290;48.674;9.018;2022-10-16T10:06:52;19.80;99.90
4556;DHT22;2290;48.674;9.018;2022-10-16T10:09:48;20.10;99.90
4556;DHT22;2290;48.674;9.018;2022-10-16T10:12:24;20.40;99.90
4556;DHT22;2290;48.674;9.018;2022-10-16T10:14:56;20.70;99.90
4556;DHT22;2290;48.674;9.018;2022-10-16T10:17:27;21.00;99.90
4556;DHT22;2290;48.674;9.018;2022-10-16T10:19:59;21.20;99.90
4556;DHT22;2290;48.674;9.018;2022-10-16T10:22:40;21.30;99.90
4556;DHT22;2290;48.674;9.018;2022-10-16T10:25:21;21.20;99.90
4556;DHT22;2290;48.674;9.018;2022-10-16T10:36:22;20.90;99.90
4556;DHT22;2290;48.674;9.018;2022-10-16T10:50:49;20.90;99.90
4556;DHT22;2290;48.674;9.018;2022-10-16T11:07:40;22.20;99.90
4556;DHT22;2290;48.674;9.018;2022-10-16T11:16:29;22.40;99.90
4556;DHT22;2290;48.674;9.018;2022-10-16T11:20:05;22.20;99.90
4556;DHT22;2290;48.674;9.018;2022-10-16T11:22:32;22.30;99.90
4556;DHT22;2290;48.674;9.018;2022-10-16T11:30:22;22.70;99.90
4556;DHT22;2290;48.674;9.018;2022-10-16T11:36:10;22.50;99.90
4556;DHT22;2290;48.674;9.018;2022-10-16T11:41:24;22.60;99.90
4556;DHT22;2290;48.674;9.018;2022-10-16T11:47:26;22.90;99.90
4556;DHT22;2290;48.674;9.018;2022-10-16T11:53:01;23.30;99.90
4556;DHT22;2290;48.674;9.018;2022-10-16T11:55:42;23.60;99.90
4556;DHT22;2290;48.674;9.018;2022-10-16T12:01:40;23.80;99.90
4556;DHT22;2290;48.674;9.018;2022-10-16T12:07:46;24.00;99.90
4556;DHT22;2290;48.674;9.018;2022-10-16T12:10:27;24.10;99.90
4556;DHT22;2290;48.674;9.018;2022-10-16T12:12:53;24.10;99.90
4556;DHT22;2290;48.674;9.018;2022-10-16T12:15:32;24.20;99.90
4556;DHT22;2290;48.674;9.018;2022-10-16T12:17:58;24.10;99.90
4556;DHT22;2290;48.674;9.018;2022-10-16T12:23:01;24.40;99.90
4556;DHT22;2290;48.674;9.018;2022-10-16T12:25:30;24.40;99.90
4556;DHT22;2290;48.674;9.018;2022-10-16T12:30:42;23.90;99.90
4556;DHT22;2290;48.674;9.018;2022-10-16T12:33:26;23.70;99.90
4556;DHT22;2290;48.674;9.018;2022-10-16T12:35:55;23.60;99.90
4556;DHT22;2290;48.674;9.018;2022-10-16T12:38:31;23.70;99.90
4556;DHT22;2290;48.674;9.018;2022-10-16T12:41:02;24.00;99.90
4556;DHT22;2290;48.674;9.018;2022-10-16T12:43:41;23.90;99.90
4556;DHT22;2290;48.674;9.018;2022-10-16T12:51:56;23.30;99.90
4556;DHT22;2290;48.674;9.018;2022-10-16T12:54:28;23.30;99.90
4556;DHT22;2290;48.674;9.018;2022-10-16T13:00:21;23.30;99.90
4556;DHT22;2290;48.674;9.018;2022-10-16T13:08:53;23.50;99.90
4556;DHT22;2290;48.674;9.018;2022-10-16T13:20:20;24.20;99.90
4556;DHT22;2290;48.674;9.018;2022-10-16T13:23:27;24.40;99.90
4556;DHT22;2290;48.674;9.018;2022-10-16T13:28:45;25.10;99.90
4556;DHT22;2290;48.674;9.018;2022-10-16T13:31:17;25.50;99.90
4556;DHT22;2290;48.674;9.018;2022-10-16T13:33:53;25.80;99.90
4556;DHT22;2290;48.674;9.018;2022-10-16T13:36:21;25.90;99.90
4556;DHT22;2290;48.674;9.018;2022-10-16T13:38:47;25.90;99.90
4556;DHT22;2290;48.674;9.018;2022-10-16T13:41:17;25.70;99.90
4556;DHT22;2290;48.674;9.018;2022-10-16T13:43:51;25.50;99.90
4556;DHT22;2290;48.674;9.018;2022-10-16T13:46:21;25.30;99.90
4556;DHT22;2290;48.674;9.018;2022-10-16T13:49:11;25.10;99.90
4556;DHT22;2290;48.674;9.018;2022-10-16T13:51:41;24.80;99.90
4556;DHT22;2290;48.674;9.018;2022-10-16T13:54:11;24.70;99.90
4556;DHT22;2290;48.674;9.018;2022-10-16T13:56:41;24.50;99.90
4556;DHT22;2290;48.674;9.018;2022-10-16T13:59:23;24.20;99.90
4556;DHT22;2290;48.674;9.018;2022-10-16T14:01:56;24.00;99.90
4556;DHT22;2290;48.674;9.018;2022-10-16T14:04:23;24.00;99.90
4556;DHT22;2290;48.674;9.018;2022-10-16T14:06:51;24.00;99.90
4556;DHT22;2290;48.674;9.018;2022-10-16T14:09:28;24.00;99.90
4556;DHT22;2290;48.674;9.018;2022-10-16T14:12:11;24.10;99.90
4556;DHT22;2290;48.674;9.018;2022-10-16T14:14:47;23.90;99.90
4556;DHT22;2290;48.674;9.018;2022-10-16T14:17:15;23.80;99.90
4556;DHT22;2290;48.674;9.018;2022-10-16T14:19:47;23.80;99.90
4556;DHT22;2290;48.674;9.018;2022-10-16T14:22:38;23.80;99.90
4556;DHT22;2290;48.674;9.018;2022-10-16T14:25:26;23.80;99.90
4556;DHT22;2290;48.674;9.018;2022-10-16T14:30:56;24.10;99.90
4556;DHT22;2290;48.674;9.018;2022-10-16T14:36:12;25.10;99.90
4556;DHT22;2290;48.674;9.018;2022-10-16T14:38:47;25.90;99.90
4556;DHT22;2290;48.674;9.018;2022-10-16T14:41:25;27.10;99.90
4556;DHT22;2290;48.674;9.018;2022-10-16T14:43:53;27.80;99.90
4556;DHT22;2290;48.674;9.018;2022-10-16T14:46:22;28.40;99.90
4556;DHT22;2290;48.674;9.018;2022-10-16T14:49:31;28.60;99.90
4556;DHT22;2290;48.674;9.018;2022-10-16T14:51:52;28.70;99.90
4556;DHT22;2290;48.674;9.018;2022-10-16T14:54:19;29.10;99.90
4556;DHT22;2290;48.674;9.018;2022-10-16T14:56:57;29.40;99.90
4556;DHT22;2290;48.674;9.018;2022-10-16T14:59:38;30.20;99.90
4556;DHT22;2290;48.674;9.018;2022-10-16T15:02:32;30.60;99.90
4556;DHT22;2290;48.674;9.018;2022-10-16T15:05:22;31.40;99.90
4556;DHT22;2290;48.674;9.018;2022-10-16T15:07:48;31.40;98.60
4556;DHT22;2290;48.674;9.018;2022-10-16T15:10:16;30.70;98.80
4556;DHT22;2290;48.674;9.018;2022-10-16T15:12:42;31.50;99.90
4556;DHT22;2290;48.674;9.018;2022-10-16T15:17:51;30.10;99.30
4556;DHT22;2290;48.674;9.018;2022-10-16T15:20:19;30.60;98.80
4556;DHT22;2290;48.674;9.018;2022-10-16T15:22:46;31.40;98.30
4556;DHT22;2290;48.674;9.018;2022-10-16T15:25:36;31.70;97.90
4556;DHT22;2290;48.674;9.018;2022-10-16T15:28:03;32.00;97.40
4556;DHT22;2290;48.674;9.018;2022-10-16T15:30:31;31.70;97.30
4556;DHT22;2290;48.674;9.018;2022-10-16T15:32:57;31.10;97.80
4556;DHT22;2290;48.674;9.018;2022-10-16T15:35:24;30.00;98.80
4556;DHT22;2290;48.674;9.018;2022-10-16T15:37:49;29.20;99.90
4556;DHT22;2290;48.674;9.018;2022-10-16T15:40:17;28.30;99.90
4556;DHT22;2290;48.674;9.018;2022-10-16T15:42:43;27.50;99.90
4556;DHT22;2290;48.674;9.018;2022-10-16T15:45:10;26.70;99.90
4556;DHT22;2290;48.674;9.018;2022-10-16T15:47:36;26.00;99.90
4556;DHT22;2290;48.674;9.018;2022-10-16T15:50:02;25.60;99.90
4556;DHT22;2290;48.674;9.018;2022-10-16T15:52:29;25.60;99.90
4556;DHT22;2290;48.674;9.018;2022-10-16T15:54:57;25.50;99.90
4556;DHT22;2290;48.674;9.018;2022-10-16T15:57:24;25.30;99.90
4556;DHT22;2290;48.674;9.018;2022-10-16T15:59:50;24.90;99.90
4556;DHT22;2290;48.674;9.018;2022-10-16T16:02:16;24.60;99.90
4556;DHT22;2290;48.674;9.018;2022-10-16T16:04:41;24.40;99.90
4556;DHT22;2290;48.674;9.018;2022-10-16T16:07:07;23.90;99.90
4556;DHT22;2290;48.674;9.018;2022-10-16T16:09:33;23.50;99.90
4556;DHT22;2290;48.674;9.018;2022-10-16T16:11:59;23.10;99.90
4556;DHT22;2290;48.674;9.018;2022-10-16T16:14:27;22.80;99.90
4556;DHT22;2290;48.674;9.018;2022-10-16T16:16:57;22.40;99.90
4556;DHT22;2290;48.674;9.018;2022-10-16T16:19:22;22.20;99.90
4556;DHT22;2290;48.674;9.018;2022-10-16T16:21:50;21.90;99.90
4556;DHT22;2290;48.674;9.018;2022-10-16T16:24:16;21.60;99.90
4556;DHT22;2290;48.674;9.018;2022-10-16T16:26:43;21.40;99.90
4556;DHT22;2290;48.674;9.018;2022-10-16T16:29:16;21.20;99.90
4556;DHT22;2290;48.674;9.018;2022-10-16T16:31:42;21.00;99.90
4556;DHT22;2290;48.674;9.018;2022-10-16T16:34:08;20.80;99.90
4556;DHT22;2290;48.674;9.018;2022-10-16T16:36:35;20.60;99.90
4556;DHT22;2290;48.674;9.018;2022-10-16T16:39:02;20.40;99.90
4556;DHT22;2290;48.674;9.018;2022-10-16T16:41:29;20.30;99.90
4556;DHT22;2290;48.674;9.018;2022-10-16T16:43:55;20.10;99.90
4556;DHT22;2290;48.674;9.018;2022-10-16T16:46:29;20.00;99.90
4556;DHT22;2290;48.674;9.018;2022-10-16T16:48:54;19.80;99.90
4556;DHT22;2290;48.674;9.018;2022-10-16T16:51:20;19.70;99.90
4556;DHT22;2290;48.674;9.018;2022-10-16T16:54:08;19.50;99.90
4556;DHT22;2290;48.674;9.018;2022-10-16T16:56:35;19.50;99.90
4556;DHT22;2290;48.674;9.018;2022-10-16T16:59:02;19.40;99.90
4556;DHT22;2290;48.674;9.018;2022-10-16T17:01:28;19.30;99.90
4556;DHT22;2290;48.674;9.018;2022-10-16T17:03:57;19.10;99.90
4556;DHT22;2290;48.674;9.018;2022-10-16T17:06:27;19.10;99.90
4556;DHT22;2290;48.674;9.018;2022-10-16T17:08:54;19.00;99.90
4556;DHT22;2290;48.674;9.018;2022-10-16T17:11:24;18.90;99.90
4556;DHT22;2290;48.674;9.018;2022-10-16T17:13:51;18.80;99.90
4556;DHT22;2290;48.674;9.018;2022-10-16T17:16:19;18.70;99.90
4556;DHT22;2290;48.674;9.018;2022-10-16T17:18:46;18.60;99.90
4556;DHT22;2290;48.674;9.018;2022-10-16T17:21:13;18.50;99.90
4556;DHT22;2290;48.674;9.018;2022-10-16T17:23:39;18.30;99.90
4556;DHT22;2290;48.674;9.018;2022-10-16T17:26:14;18.20;99.90
4556;DHT22;2290;48.674;9.018;2022-10-16T17:28:40;18.10;99.90
4556;DHT22;2290;48.674;9.018;2022-10-16T17:31:09;18.00;99.90
4556;DHT22;2290;48.674;9.018;2022-10-16T17:33:35;18.00;99.90
4556;DHT22;2290;48.674;9.018;2022-10-16T17:36:01;17.90;99.90
4556;DHT22;2290;48.674;9.018;2022-10-16T17:38:27;17.80;99.90
4556;DHT22;2290;48.674;9.018;2022-10-16T17:40:54;17.70;99.90
4556;DHT22;2290;48.674;9.018;2022-10-16T17:43:21;17.60;99.90
4556;DHT22;2290;48.674;9.018;2022-10-16T17:45:47;17.60;99.90
4556;DHT22;2290;48.674;9.018;2022-10-16T17:48:12;17.50;99.90
4556;DHT22;2290;48.674;9.018;2022-10-16T17:50:42;17.50;99.90
4556;DHT22;2290;48.674;9.018;2022-10-16T17:53:08;17.50;99.90
4556;DHT22;2290;48.674;9.018;2022-10-16T17:55:38;17.50;99.90
4556;DHT22;2290;48.674;9.018;2022-10-16T17:58:03;17.50;99.90
4556;DHT22;2290;48.674;9.018;2022-10-16T18:00:29;17.50;99.90
4556;DHT22;2290;48.674;9.018;2022-10-16T18:02:56;17.40;99.90
4556;DHT22;2290;48.674;9.018;2022-10-16T18:05:24;17.30;99.90
4556;DHT22;2290;48.674;9.018;2022-10-16T18:07:50;17.30;99.90
4556;DHT22;2290;48.674;9.018;2022-10-16T18:10:19;17.40;99.90
4556;DHT22;2290;48.674;9.018;2022-10-16T18:12:45;17.40;99.90
4556;DHT22;2290;48.674;9.018;2022-10-16T18:15:12;17.50;99.90
4556;DHT22;2290;48.674;9.018;2022-10-16T18:17:38;17.50;99.90
4556;DHT22;2290;48.674;9.018;2022-10-16T18:20:05;17.50;99.90
4556;DHT22;2290;48.674;9.018;2022-10-16T18:22:32;17.60;99.90
4556;DHT22;2290;48.674;9.018;2022-10-16T18:25:01;17.60;99.90
4556;DHT22;2290;48.674;9.018;2022-10-16T18:27:32;17.70;99.90
4556;DHT22;2290;48.674;9.018;2022-10-16T18:29:58;17.70;99.90
4556;DHT22;2290;48.674;9.018;2022-10-16T18:32:25;17.70;99.90
4556;DHT22;2290;48.674;9.018;2022-10-16T18:34:52;17.60;99.90
4556;DHT22;2290;48.674;9.018;2022-10-16T18:37:18;17.60;99.90
4556;DHT22;2290;48.674;9.018;2022-10-16T18:39:48;17.60;99.90
4556;DHT22;2290;48.674;9.018;2022-10-16T18:42:17;17.60;99.90
4556;DHT22;2290;48.674;9.018;2022-10-16T18:44:43;17.50;99.90
4556;DHT22;2290;48.674;9.018;2022-10-16T18:47:10;17.50;99.90
4556;DHT22;2290;48.674;9.018;2022-10-16T18:49:36;17.50;99.90